| time (UTC) | temp C | wind direction | speed KPH | gust KPH | rain 1hr cm | rain 24hr cm | rain mn cm | humidity % | barometer mb |
| 20260510174505 | 19 | 297 | 4.8 | 14.5 | 0.00 | 0.03 | 0.03 | 41 | 1019.5 |
| 20260510173022 | 19 | 326 | 6.4 | 17.7 | 0.00 | 0.03 | 0.03 | 43 | 1019.5 |
| 20260510171522 | 19 | 52 | 3.2 | 17.7 | 0.00 | 0.03 | 0.03 | 42 | 1019.5 |
| 20260510170018 | 18 | 312 | 4.8 | 14.5 | 0.00 | 0.03 | 0.03 | 44 | 1019.6 |
| 20260510164519 | 18 | 296 | 4.8 | 14.5 | 0.00 | 0.03 | 0.03 | 42 | 1019.5 |
| 20260510163015 | 19 | 328 | 6.4 | 19.3 | 0.00 | 0.03 | 0.03 | 45 | 1019.4 |
| 20260510161512 | 18 | 15 | 4.8 | 12.9 | 0.00 | 0.03 | 0.03 | 45 | 1019.4 |
| 20260510160008 | 18 | 319 | 3.2 | 12.9 | 0.00 | 0.03 | 0.03 | 44 | 1019.6 |
| 20260510154531 | 18 | 311 | 3.2 | 11.3 | 0.00 | 0.03 | 0.03 | 44 | 1019.7 |
| 20260510153041 | 18 | 20 | 3.2 | 9.7 | 0.00 | 0.03 | 0.03 | 50 | 1019.6 |
| 20260510151520 | 17 | 318 | 3.2 | 22.5 | 0.00 | 0.03 | 0.03 | 47 | 1019.7 |
| 20260510150018 | 17 | 322 | 3.2 | 14.5 | 0.00 | 0.03 | 0.03 | 50 | 1019.5 |
| 20260510144541 | 17 | 304 | 3.2 | 14.5 | 0.00 | 0.03 | 0.03 | 53 | 1019.4 |
| 20260510143013 | 16 | 309 | 3.2 | 9.7 | 0.00 | 0.03 | 0.03 | 58 | 1019.3 |
| 20260510141513 | 16 | 30 | 4.8 | 14.5 | 0.00 | 0.03 | 0.03 | 58 | 1018.9 |
| 20260510140025 | 16 | 44 | 3.2 | 12.9 | 0.00 | 0.03 | 0.03 | 61 | 1018.5 |
| 20260510134524 | 15 | 304 | 4.8 | 16.1 | 0.00 | 0.03 | 0.03 | 66 | 1018.2 |
| 20260510133024 | 15 | 311 | 1.6 | 8.0 | 0.00 | 0.03 | 0.03 | 69 | 1018.2 |
| 20260510131521 | 14 | 12 | 1.6 | 4.8 | 0.00 | 0.03 | 0.03 | 74 | 1017.9 |
| 20260510130019 | 13 | 319 | 1.6 | 6.4 | 0.00 | 0.03 | 0.03 | 78 | 1017.8 |
| 20260510124520 | 13 | 36 | 1.6 | 9.7 | 0.00 | 0.03 | 0.03 | 80 | 1017.9 |
| 20260510123015 | 13 | 325 | 0.0 | 4.8 | 0.00 | 0.03 | 0.03 | 82 | 1017.6 |
| 20260510121512 | 13 | 311 | 3.2 | 6.4 | 0.00 | 0.03 | 0.03 | 83 | 1017.3 |
| 20260510120029 | 13 | 312 | 1.6 | 11.3 | 0.00 | 0.03 | 0.03 | 85 | 1017.4 |
| 20260510114527 | 13 | 307 | 1.6 | 6.4 | 0.00 | 0.03 | 0.03 | 87 | 1016.9 |
| 20260510113026 | 13 | 309 | 1.6 | 6.4 | 0.00 | 0.03 | 0.03 | 88 | 1016.8 |
| 20260510111523 | 14 | 360 | 0.0 | 9.7 | 0.00 | 0.03 | 0.03 | 89 | 1016.4 |
| 20260510110025 | 14 | 344 | 0.0 | 3.2 | 0.00 | 0.03 | 0.03 | 91 | 1015.9 |
| 20260510104519 | 14 | 55 | 3.2 | 6.4 | 0.00 | 0.03 | 0.03 | 92 | 1015.6 |
| 20260510103016 | 14 | 337 | 1.6 | 6.4 | 0.00 | 0.03 | 0.03 | 93 | 1015.4 |
| 20260510101513 | 14 | 71 | 1.6 | 4.8 | 0.00 | 0.03 | 0.03 | 93 | 1015.1 |
| 20260510100012 | 14 | 317 | 0.0 | 1.6 | 0.00 | 0.03 | 0.03 | 92 | 1015.1 |
| 20260510094506 | 14 | 58 | 0.0 | 1.6 | 0.00 | 0.03 | 0.03 | 92 | 1015.4 |
| 20260510093025 | 14 | 331 | 3.2 | 8.0 | 0.00 | 0.03 | 0.03 | 92 | 1015.5 |
| 20260510091526 | 14 | 45 | 0.0 | 3.2 | 0.00 | 0.03 | 0.03 | 92 | 1014.6 |
| 20260510090023 | 14 | 319 | 1.6 | 3.2 | 0.00 | 0.03 | 0.03 | 92 | 1014.6 |
| 20260510084540 | 14 | 105 | 0.0 | 1.6 | 0.03 | 0.03 | 0.03 | 92 | 1014.4 |
| 20260510083015 | 15 | 311 | 0.0 | 0.0 | 0.03 | 0.03 | 0.03 | 91 | 1014.0 |
| 20260510081533 | 15 | 311 | 0.0 | 0.0 | 0.03 | 0.03 | 0.03 | 90 | 1013.7 |
| 20260510080012 | 15 | 311 | 1.6 | 3.2 | 0.03 | 0.03 | 0.03 | 88 | 1013.6 |
| 20260510074528 | 15 | 75 | 0.0 | 6.4 | 0.00 | 0.00 | 0.00 | 85 | 1013.7 |
| 20260510073036 | 15 | 256 | 1.6 | 3.2 | 0.00 | 0.00 | 0.00 | 85 | 1014.1 |
| 20260510071526 | 16 | 55 | 0.0 | 1.6 | 0.00 | 0.00 | 0.00 | 83 | 1013.5 |
| 20260510070024 | 15 | 55 | 1.6 | 3.2 | 0.00 | 0.00 | 0.00 | 84 | 1013.7 |
| 20260510064516 | 15 | 323 | 0.0 | 1.6 | 0.00 | 0.00 | 0.00 | 86 | 1013.7 |
| 20260510063017 | 15 | 147 | 0.0 | 1.6 | 0.00 | 0.00 | 0.00 | 83 | 1013.6 |
| 20260510061514 | 16 | 147 | 0.0 | 0.0 | 0.00 | 0.00 | 0.00 | 85 | 1013.3 |
| 20260510060036 | 16 | 147 | 0.0 | 1.6 | 0.00 | 0.00 | 0.00 | 82 | 1013.3 |
| 20260510054528 | 16 | 150 | 0.0 | 1.6 | 0.00 | 0.00 | 0.00 | 77 | 1013.0 |
| 20260510053028 | 17 | 356 | 0.0 | 1.6 | 0.00 | 0.00 | 0.00 | 80 | 1013.0 |
| 20260510051522 | 17 | 352 | 0.0 | 1.6 | 0.00 | 0.00 | 0.00 | 76 | 1013.0 |
| 20260510050024 | 17 | 351 | 1.6 | 1.6 | 0.00 | 0.00 | 0.00 | 74 | 1012.7 |
| 20260510044522 | 17 | 283 | 0.0 | 1.6 | 0.00 | 0.00 | 0.00 | 72 | 1012.4 |
| 20260510043016 | 17 | 283 | 1.6 | 3.2 | 0.00 | 0.00 | 0.00 | 71 | 1012.4 |
| 20260510041534 | 18 | 309 | 1.6 | 4.8 | 0.00 | 0.00 | 0.00 | 69 | 1012.3 |
| 20260510040027 | 18 | 314 | 1.6 | 9.7 | 0.00 | 0.00 | 0.00 | 68 | 1012.2 |
| 20260510034529 | 18 | 307 | 6.4 | 14.5 | 0.00 | 0.03 | 0.00 | 65 | 1012.2 |
| 20260510033027 | 16 | 311 | 8.0 | 11.3 | 0.00 | 0.23 | 0.00 | 73 | 1011.9 |
| 20260510031524 | 15 | 150 | 0.0 | 1.6 | 0.00 | 0.69 | 0.00 | 79 | 1011.2 |
| 20260510030027 | 14 | 226 | 0.0 | 1.6 | 0.00 | 0.97 | 0.00 | 87 | 1011.0 |
| 20260510024529 | 14 | 226 | 0.0 | 0.0 | 0.00 | 1.07 | 0.00 | 87 | 1010.7 |
| 20260510023019 | 14 | 226 | 0.0 | 0.0 | 0.00 | 1.22 | 0.00 | 86 | 1010.5 |
| 20260510021516 | 15 | 226 | 0.0 | 1.6 | 0.00 | 1.57 | 0.00 | 85 | 1010.4 |
| 20260510020011 | 15 | 226 | 0.0 | 0.0 | 0.00 | 1.78 | 0.00 | 84 | 1010.1 |
| 20260510014508 | 16 | 226 | 0.0 | 1.6 | 0.00 | 1.88 | 0.00 | 82 | 1009.9 |
| 20260510013005 | 17 | 226 | 0.0 | 0.0 | 0.00 | 1.88 | 0.00 | 78 | 1009.7 |
| 20260510011507 | 18 | 226 | 0.0 | 0.0 | 0.00 | 1.88 | 0.00 | 74 | 1009.5 |
| 20260510010025 | 20 | 226 | 0.0 | 1.6 | 0.00 | 1.88 | 0.00 | 69 | 1009.4 |
| 20260510004521 | 21 | 226 | 0.0 | 1.6 | 0.00 | 1.88 | 0.00 | 59 | 1009.3 |
| 20260510003027 | 23 | 226 | 0.0 | 0.0 | 0.00 | 1.88 | 0.00 | 50 | 1009.2 |
| 20260510001516 | 26 | 255 | 0.0 | 0.0 | 0.00 | 1.93 | 0.00 | 39 | 1009.1 |
| 20260510000014 | 27 | 255 | 0.0 | 1.6 | 0.00 | 2.01 | 0.00 | 35 | 1009.0 |
| 20260509234513 | 26 | 233 | 1.6 | 4.8 | 0.00 | 2.03 | 0.00 | 36 | 1009.0 |
| 20260509233005 | 27 | 283 | 3.2 | 6.4 | 0.00 | 2.03 | 0.00 | 34 | 1009.1 |
| 20260509231528 | 26 | 242 | 1.6 | 6.4 | 0.00 | 2.03 | 0.00 | 34 | 1009.1 |
| 20260509230024 | 26 | 274 | 6.4 | 9.7 | 0.00 | 2.03 | 0.00 | 34 | 1009.1 |
| 20260509224522 | 26 | 270 | 4.8 | 11.3 | 0.00 | 2.03 | 0.00 | 33 | 1009.0 |
| 20260509223020 | 27 | 236 | 1.6 | 14.5 | 0.00 | 2.03 | 0.00 | 37 | 1009.0 |
| 20260509221517 | 26 | 282 | 6.4 | 12.9 | 0.00 | 2.03 | 0.00 | 33 | 1008.9 |
| 20260509220016 | 26 | 257 | 4.8 | 16.1 | 0.00 | 2.03 | 0.00 | 34 | 1009.0 |
| 20260509214510 | 26 | 327 | 6.4 | 11.3 | 0.00 | 2.03 | 0.00 | 33 | 1009.0 |
| 20260509213009 | 26 | 256 | 1.6 | 16.1 | 0.00 | 2.03 | 0.00 | 39 | 1009.1 |
| 20260509211527 | 26 | 302 | 9.7 | 16.1 | 0.00 | 2.03 | 0.00 | 36 | 1009.2 |
| 20260509210027 | 26 | 301 | 3.2 | 19.3 | 0.00 | 2.03 | 0.00 | 37 | 1009.3 |
| 20260509204524 | 26 | 290 | 6.4 | 14.5 | 0.00 | 2.03 | 0.00 | 38 | 1009.5 |
| 20260509203018 | 26 | 243 | 3.2 | 12.9 | 0.00 | 2.03 | 0.00 | 41 | 1009.5 |
| 20260509201519 | 26 | 287 | 6.4 | 17.7 | 0.00 | 2.03 | 0.00 | 37 | 1009.6 |
| 20260509200015 | 26 | 148 | 3.2 | 14.5 | 0.00 | 2.03 | 0.00 | 36 | 1009.8 |
| 20260509194521 | 26 | 237 | 3.2 | 17.7 | 0.00 | 2.03 | 0.00 | 37 | 1009.8 |
| 20260509193028 | 26 | 267 | 6.4 | 14.5 | 0.00 | 2.03 | 0.00 | 41 | 1009.9 |
| 20260509191524 | 26 | 236 | 4.8 | 14.5 | 0.00 | 2.03 | 0.00 | 37 | 1010.0 |
| 20260509190025 | 25 | 277 | 6.4 | 16.1 | 0.00 | 2.03 | 0.00 | 43 | 1010.1 |
| 20260509184535 | 25 | 336 | 8.0 | 20.9 | 0.00 | 2.03 | 0.00 | 40 | 1010.1 |
| 20260509183021 | 25 | 216 | 8.0 | 20.9 | 0.00 | 2.03 | 0.00 | 43 | 1010.0 |
| 20260509181519 | 25 | 342 | 6.4 | 16.1 | 0.00 | 2.03 | 0.00 | 42 | 1010.0 |
| 20260509180021 | 25 | 276 | 6.4 | 14.5 | 0.00 | 2.03 | 0.00 | 45 | 1010.1 |